createdAt,value
2018-09-13T00:03:11.781Z,1.10
2018-09-13T00:08:15.106Z,1.30
2018-09-13T00:13:18.422Z,1.40
2018-09-13T00:18:21.718Z,1.12
2018-09-13T00:23:25.027Z,1.35
2018-09-13T00:28:28.349Z,1.05
2018-09-13T00:33:31.673Z,1.25
2018-09-13T00:38:35.011Z,1.02
2018-09-13T00:43:38.358Z,1.12
2018-09-13T00:48:41.680Z,1.15
2018-09-13T00:53:45.010Z,1.20
2018-09-13T00:58:48.322Z,0.80
2018-09-13T01:03:51.787Z,1.10
2018-09-13T01:08:55.098Z,0.98
2018-09-13T01:13:58.423Z,1.10
2018-09-13T01:19:01.887Z,0.90
2018-09-13T01:24:05.239Z,0.93
2018-09-13T01:29:08.561Z,0.90
2018-09-13T01:34:11.884Z,0.90
2018-09-13T01:39:15.196Z,0.90
2018-09-13T01:44:18.504Z,0.90
2018-09-13T01:49:21.859Z,1.10
2018-09-13T01:54:25.171Z,1.10
2018-09-13T01:59:28.486Z,0.90
2018-09-13T02:04:31.844Z,0.90
2018-09-13T02:09:35.163Z,1.00
2018-09-13T02:14:38.599Z,1.20
2018-09-13T02:19:41.915Z,1.25
2018-09-13T02:24:45.210Z,0.93
2018-09-13T02:29:48.552Z,1.10
2018-09-13T02:34:51.921Z,0.90
2018-09-13T02:39:55.250Z,0.80
2018-09-13T02:44:58.581Z,0.98
2018-09-13T02:50:01.924Z,0.90
2018-09-13T02:55:05.490Z,1.05
2018-09-13T03:00:09.520Z,0.95
2018-09-13T03:05:12.836Z,1.00
2018-09-13T03:10:16.170Z,1.02
2018-09-13T03:15:19.460Z,1.20
2018-09-13T03:20:22.767Z,1.23
2018-09-13T03:25:26.110Z,1.22
2018-09-13T03:30:29.467Z,1.07
2018-09-13T03:35:32.832Z,1.10
2018-09-13T03:40:36.161Z,1.72
2018-09-13T03:45:39.470Z,1.17
2018-09-13T03:50:42.809Z,1.20
2018-09-13T03:55:46.150Z,1.37
2018-09-13T04:00:49.508Z,1.10
2018-09-13T04:05:52.879Z,1.30
2018-09-13T04:10:56.230Z,1.20
2018-09-13T04:15:59.572Z,1.00
2018-09-13T04:21:02.939Z,1.00
2018-09-13T04:26:06.390Z,1.60
2018-09-13T04:31:09.722Z,1.22
2018-09-13T04:36:13.415Z,1.02
2018-09-13T04:41:16.746Z,0.90
2018-09-13T04:46:20.087Z,1.40
2018-09-13T04:51:23.421Z,1.05
2018-09-13T04:56:26.759Z,1.12
2018-09-13T05:07:36.763Z,1.40
2018-09-13T05:12:40.139Z,1.22
2018-09-13T05:17:43.467Z,1.30
2018-09-13T05:22:46.790Z,1.25
2018-09-13T05:27:50.105Z,1.17
2018-09-13T05:32:53.451Z,1.00
2018-09-13T05:37:56.766Z,1.22
2018-09-13T05:43:00.100Z,1.10
2018-09-13T05:48:03.461Z,1.20
2018-09-13T05:53:06.802Z,1.80
2018-09-13T05:58:10.132Z,1.40
2018-09-13T06:03:13.475Z,1.47
2018-09-13T06:08:16.820Z,1.40
2018-09-13T06:13:20.163Z,1.30
2018-09-13T06:18:23.502Z,1.35
2018-09-13T06:23:26.873Z,1.82
2018-09-13T06:28:30.200Z,1.60
2018-09-13T06:33:33.551Z,1.32
2018-09-13T06:38:36.922Z,1.77
2018-09-13T06:43:40.258Z,2.00
2018-09-13T06:48:43.670Z,1.92
2018-09-13T06:53:46.995Z,1.87
2018-09-13T06:58:50.330Z,2.00
2018-09-13T07:03:53.638Z,1.92
2018-09-13T07:08:57.003Z,1.90
2018-09-13T07:14:00.359Z,1.60
2018-09-13T07:19:03.758Z,2.00
2018-09-13T07:24:07.160Z,2.00
2018-09-13T07:29:10.510Z,2.17
2018-09-13T07:34:13.828Z,1.80
2018-09-13T07:39:17.157Z,1.92
2018-09-13T07:44:20.525Z,2.02
2018-09-13T07:49:23.907Z,2.02
2018-09-13T07:54:27.200Z,1.80
2018-09-13T07:59:30.528Z,1.87
2018-09-13T08:04:33.883Z,2.80
2018-09-13T08:09:37.203Z,1.82
2018-09-13T08:14:40.574Z,1.95
2018-09-13T08:19:43.911Z,2.00
2018-09-13T08:24:47.246Z,2.10
2018-09-13T08:29:50.546Z,2.60
2018-09-13T08:34:53.898Z,2.45
2018-09-13T08:39:57.326Z,2.90
2018-09-13T08:45:00.567Z,2.85
2018-09-13T08:50:03.930Z,3.40
2018-09-13T08:55:09.537Z,3.50
2018-09-13T09:00:14.027Z,3.70
2018-09-13T09:05:17.356Z,3.30
2018-09-13T09:10:20.720Z,5.78
2018-09-13T09:15:24.067Z,3.07
2018-09-13T09:20:27.383Z,2.93
2018-09-13T09:25:30.706Z,2.50
2018-09-13T09:30:34.075Z,3.83
2018-09-13T09:35:37.399Z,4.30
2018-09-13T09:40:40.769Z,5.00
2018-09-13T09:45:44.148Z,4.58
2018-09-13T09:50:47.488Z,4.70
2018-09-13T09:55:50.830Z,4.97
2018-09-13T10:00:59.679Z,4.05
2018-09-13T10:06:02.999Z,4.05
2018-09-13T10:11:06.379Z,4.45
2018-09-13T10:16:15.060Z,3.92
2018-09-13T10:21:23.655Z,4.55
2018-09-13T10:26:32.375Z,3.98
2018-09-13T10:31:41.064Z,5.00
2018-09-13T10:36:49.863Z,4.40
2018-09-13T10:41:58.727Z,5.45
2018-09-13T10:47:07.322Z,5.60
2018-09-13T10:52:18.194Z,5.62
2018-09-13T10:57:26.704Z,4.83
2018-09-13T11:02:30.067Z,5.83
2018-09-13T11:07:33.461Z,5.43
2018-09-13T11:12:43.955Z,5.78
2018-09-13T11:17:47.270Z,5.65
2018-09-13T11:22:53.564Z,5.97
2018-09-13T11:27:56.902Z,5.28
2018-09-13T11:33:00.242Z,5.75
2018-09-13T11:38:03.590Z,5.45
2018-09-13T11:43:06.910Z,5.47
2018-09-13T11:48:10.230Z,4.95
2018-09-13T11:53:13.602Z,4.95
2018-09-13T11:58:17.251Z,4.50
2018-09-13T12:03:20.598Z,4.05
2018-09-13T12:08:23.958Z,4.37
2018-09-13T12:13:27.264Z,4.87
2018-09-13T12:18:30.631Z,4.65
2018-09-13T12:23:33.967Z,4.57
2018-09-13T12:28:37.315Z,5.00
2018-09-13T12:33:40.699Z,4.80
2018-09-13T12:38:44.031Z,4.87
2018-09-13T12:43:47.364Z,3.98
2018-09-13T12:48:50.794Z,5.37
2018-09-13T12:53:54.163Z,5.30
2018-09-13T12:58:57.514Z,5.45
2018-09-13T13:04:00.840Z,4.70
2018-09-13T13:09:04.863Z,4.75
2018-09-13T13:14:08.226Z,5.67
2018-09-13T13:19:11.556Z,5.60
2018-09-13T13:24:14.890Z,5.28
2018-09-13T13:29:18.206Z,5.97
2018-09-13T13:34:21.539Z,5.50
2018-09-13T13:39:24.853Z,5.55
2018-09-13T13:44:28.154Z,5.45
2018-09-13T13:49:31.692Z,5.35
2018-09-13T13:54:34.827Z,6.60
2018-09-13T13:59:38.164Z,7.30
2018-09-13T14:04:41.570Z,4.97
2018-09-13T14:09:45.085Z,4.35
2018-09-13T14:14:48.219Z,4.25
2018-09-13T14:25:26.238Z,4.50
2018-09-13T14:30:29.528Z,3.95
2018-09-13T14:35:32.870Z,4.12
2018-09-13T14:40:36.192Z,3.67
2018-09-13T14:45:39.492Z,4.28
2018-09-13T14:50:42.840Z,3.55
2018-09-13T14:55:46.150Z,4.10
2018-09-13T15:00:49.461Z,4.37
2018-09-13T15:05:52.780Z,3.45
2018-09-13T15:10:56.095Z,3.60
2018-09-13T15:15:59.390Z,3.77
2018-09-13T15:21:02.691Z,4.25
2018-09-13T15:26:06.066Z,3.70
2018-09-13T15:31:09.490Z,4.03
2018-09-13T15:36:12.731Z,3.47
2018-09-13T15:41:16.293Z,3.98
2018-09-13T15:46:19.598Z,3.30
2018-09-13T15:51:22.916Z,4.00
2018-09-13T15:56:26.225Z,3.75
2018-09-13T16:01:29.599Z,3.30
2018-09-13T16:06:32.930Z,3.50
2018-09-13T16:11:36.290Z,3.33
2018-09-13T16:16:39.611Z,3.35
2018-09-13T16:21:42.932Z,3.75
2018-09-13T16:26:46.239Z,3.08
2018-09-13T17:45:00.612Z,3.27
2018-09-13T17:50:04.147Z,3.58
2018-09-13T17:55:07.782Z,3.45
2018-09-13T18:00:13.451Z,3.50
2018-09-13T18:05:16.913Z,3.70
2018-09-13T18:10:20.259Z,3.67
2018-09-13T18:15:23.732Z,3.70
2018-09-13T18:20:27.083Z,4.10
2018-09-13T19:16:10.902Z,3.52
2018-09-13T19:21:14.263Z,3.77
2018-09-13T19:26:17.623Z,4.03
2018-09-13T19:31:20.944Z,4.20
2018-09-13T19:36:24.305Z,3.65
2018-09-13T19:41:27.897Z,3.72
2018-09-13T19:46:31.260Z,4.12
2018-09-13T19:51:34.700Z,4.53
2018-09-13T19:56:38.165Z,4.08
2018-09-13T20:01:41.486Z,4.25
2018-09-13T20:06:44.872Z,5.15
2018-09-13T20:45:34.656Z,5.78
2018-09-13T20:50:38.350Z,5.58
2018-09-13T20:55:42.417Z,5.17
2018-09-13T21:00:46.319Z,6.00
2018-09-13T21:11:28.195Z,5.37
2018-09-13T21:16:31.779Z,5.40
2018-09-13T21:21:35.543Z,5.40
2018-09-13T21:26:38.909Z,5.47
2018-09-13T21:31:42.287Z,5.28
2018-09-13T21:36:45.628Z,5.08
2018-09-13T21:41:48.959Z,4.70
2018-09-13T21:46:52.297Z,4.20
2018-09-13T21:57:25.874Z,3.77
2018-09-13T22:02:29.217Z,2.83
2018-09-13T22:07:32.699Z,2.60
2018-09-13T22:12:36.083Z,2.70
2018-09-13T22:17:39.484Z,2.20
2018-09-13T22:22:42.839Z,1.85
2018-09-13T22:27:46.202Z,2.40
2018-09-13T22:32:49.547Z,1.87
2018-09-13T22:37:53.659Z,2.35
2018-09-13T22:42:57.303Z,1.77
2018-09-13T22:48:00.740Z,2.08
2018-09-13T22:53:04.389Z,1.85
2018-09-13T22:58:07.948Z,2.12
2018-09-13T23:03:11.308Z,1.98
2018-09-13T23:08:14.677Z,1.57
2018-09-13T23:13:18.069Z,1.75
2018-09-13T23:18:21.391Z,2.00
2018-09-13T23:23:24.726Z,1.75
2018-09-13T23:28:28.050Z,1.90
2018-09-13T23:33:31.446Z,1.45
2018-09-13T23:38:34.812Z,1.50
2018-09-13T23:43:38.155Z,1.60
2018-09-13T23:48:41.465Z,1.65
2018-09-13T23:53:44.826Z,1.70
2018-09-13T23:58:48.165Z,1.62
